sensor_id;sensor_type;location;lat;lon;timestamp;P1;durP1;ratioP1;P2;durP2;ratioP2
7719;SDS011;3902;49.474;8.616;2024-02-14T00:00:32;2.90;;;2.43;;
7719;SDS011;3902;49.474;8.616;2024-02-14T00:02:57;3.27;;;2.90;;
7719;SDS011;3902;49.474;8.616;2024-02-14T00:05:23;3.30;;;2.77;;
7719;SDS011;3902;49.474;8.616;2024-02-14T00:07:48;3.60;;;2.73;;
7719;SDS011;3902;49.474;8.616;2024-02-14T00:10:14;3.80;;;3.00;;
7719;SDS011;3902;49.474;8.616;2024-02-14T00:12:39;3.40;;;2.87;;
7719;SDS011;3902;49.474;8.616;2024-02-14T00:15:05;3.10;;;2.60;;
7719;SDS011;3902;49.474;8.616;2024-02-14T00:17:32;5.43;;;3.23;;
7719;SDS011;3902;49.474;8.616;2024-02-14T00:20:01;4.30;;;2.70;;
7719;SDS011;3902;49.474;8.616;2024-02-14T00:22:28;3.30;;;3.00;;
7719;SDS011;3902;49.474;8.616;2024-02-14T00:24:53;5.10;;;3.13;;
7719;SDS011;3902;49.474;8.616;2024-02-14T00:27:19;4.27;;;3.30;;
7719;SDS011;3902;49.474;8.616;2024-02-14T00:29:45;6.40;;;3.90;;
7719;SDS011;3902;49.474;8.616;2024-02-14T00:32:14;4.27;;;3.60;;
7719;SDS011;3902;49.474;8.616;2024-02-14T00:34:40;4.97;;;3.60;;
7719;SDS011;3902;49.474;8.616;2024-02-14T00:37:05;3.60;;;3.10;;
7719;SDS011;3902;49.474;8.616;2024-02-14T00:39:31;5.30;;;3.80;;
7719;SDS011;3902;49.474;8.616;2024-02-14T00:41:57;4.60;;;3.50;;
7719;SDS011;3902;49.474;8.616;2024-02-14T00:44:22;4.30;;;3.30;;
7719;SDS011;3902;49.474;8.616;2024-02-14T00:46:49;6.10;;;3.83;;
7719;SDS011;3902;49.474;8.616;2024-02-14T00:49:21;3.80;;;3.37;;
7719;SDS011;3902;49.474;8.616;2024-02-14T00:51:47;6.30;;;3.70;;
7719;SDS011;3902;49.474;8.616;2024-02-14T00:54:13;4.70;;;3.30;;
7719;SDS011;3902;49.474;8.616;2024-02-14T00:56:38;4.43;;;3.60;;
7719;SDS011;3902;49.474;8.616;2024-02-14T00:59:05;3.90;;;3.50;;
7719;SDS011;3902;49.474;8.616;2024-02-14T01:01:32;4.60;;;3.23;;
7719;SDS011;3902;49.474;8.616;2024-02-14T01:03:57;3.20;;;2.90;;
7719;SDS011;3902;49.474;8.616;2024-02-14T01:06:23;3.20;;;2.67;;
7719;SDS011;3902;49.474;8.616;2024-02-14T01:08:49;4.20;;;3.10;;
7719;SDS011;3902;49.474;8.616;2024-02-14T01:11:15;3.47;;;3.00;;
7719;SDS011;3902;49.474;8.616;2024-02-14T01:13:40;2.97;;;2.77;;
7719;SDS011;3902;49.474;8.616;2024-02-14T01:16:06;4.97;;;3.10;;
7719;SDS011;3902;49.474;8.616;2024-02-14T01:18:32;3.47;;;2.80;;
7719;SDS011;3902;49.474;8.616;2024-02-14T01:20:58;4.67;;;2.93;;
7719;SDS011;3902;49.474;8.616;2024-02-14T01:23:25;3.23;;;2.80;;
7719;SDS011;3902;49.474;8.616;2024-02-14T01:25:51;4.30;;;3.10;;
7719;SDS011;3902;49.474;8.616;2024-02-14T01:28:19;5.20;;;2.90;;
7719;SDS011;3902;49.474;8.616;2024-02-14T01:30:45;3.77;;;2.70;;
7719;SDS011;3902;49.474;8.616;2024-02-14T01:33:10;3.77;;;2.50;;
7719;SDS011;3902;49.474;8.616;2024-02-14T01:35:36;4.83;;;3.30;;
7719;SDS011;3902;49.474;8.616;2024-02-14T01:38:01;4.47;;;2.60;;
7719;SDS011;3902;49.474;8.616;2024-02-14T01:40:27;3.30;;;2.90;;
7719;SDS011;3902;49.474;8.616;2024-02-14T01:42:53;3.13;;;2.73;;
7719;SDS011;3902;49.474;8.616;2024-02-14T01:45:20;3.70;;;2.90;;
7719;SDS011;3902;49.474;8.616;2024-02-14T01:47:46;3.13;;;2.83;;
7719;SDS011;3902;49.474;8.616;2024-02-14T01:50:13;4.93;;;3.00;;
7719;SDS011;3902;49.474;8.616;2024-02-14T01:52:38;3.73;;;2.97;;
7719;SDS011;3902;49.474;8.616;2024-02-14T01:55:05;3.30;;;2.87;;
7719;SDS011;3902;49.474;8.616;2024-02-14T01:57:33;3.73;;;2.70;;
7719;SDS011;3902;49.474;8.616;2024-02-14T02:00:00;5.67;;;3.47;;
7719;SDS011;3902;49.474;8.616;2024-02-14T02:02:33;5.23;;;3.33;;
7719;SDS011;3902;49.474;8.616;2024-02-14T02:05:02;3.40;;;2.97;;
7719;SDS011;3902;49.474;8.616;2024-02-14T02:07:27;4.33;;;3.27;;
7719;SDS011;3902;49.474;8.616;2024-02-14T02:09:53;4.77;;;3.50;;
7719;SDS011;3902;49.474;8.616;2024-02-14T02:12:18;4.30;;;3.53;;
7719;SDS011;3902;49.474;8.616;2024-02-14T02:14:44;4.93;;;3.60;;
7719;SDS011;3902;49.474;8.616;2024-02-14T02:17:10;4.30;;;3.80;;
7719;SDS011;3902;49.474;8.616;2024-02-14T02:19:37;10.27;;;3.50;;
7719;SDS011;3902;49.474;8.616;2024-02-14T02:22:03;4.37;;;3.40;;
7719;SDS011;3902;49.474;8.616;2024-02-14T02:24:29;4.73;;;3.70;;
7719;SDS011;3902;49.474;8.616;2024-02-14T02:26:55;7.47;;;4.03;;
7719;SDS011;3902;49.474;8.616;2024-02-14T02:29:21;4.93;;;3.40;;
7719;SDS011;3902;49.474;8.616;2024-02-14T02:31:47;4.57;;;3.57;;
7719;SDS011;3902;49.474;8.616;2024-02-14T02:34:12;4.43;;;3.90;;
7719;SDS011;3902;49.474;8.616;2024-02-14T02:36:38;4.83;;;3.37;;
7719;SDS011;3902;49.474;8.616;2024-02-14T02:39:05;3.93;;;3.20;;
7719;SDS011;3902;49.474;8.616;2024-02-14T02:41:31;6.23;;;3.90;;
7719;SDS011;3902;49.474;8.616;2024-02-14T02:43:57;5.30;;;3.50;;
7719;SDS011;3902;49.474;8.616;2024-02-14T02:46:22;3.20;;;2.90;;
7719;SDS011;3902;49.474;8.616;2024-02-14T02:48:48;5.13;;;3.20;;
7719;SDS011;3902;49.474;8.616;2024-02-14T02:51:16;5.70;;;3.70;;
7719;SDS011;3902;49.474;8.616;2024-02-14T02:53:42;3.90;;;3.50;;
7719;SDS011;3902;49.474;8.616;2024-02-14T02:56:08;4.67;;;3.43;;
7719;SDS011;3902;49.474;8.616;2024-02-14T02:58:33;5.30;;;3.70;;
7719;SDS011;3902;49.474;8.616;2024-02-14T03:00:59;3.63;;;3.30;;
7719;SDS011;3902;49.474;8.616;2024-02-14T03:03:25;8.00;;;3.73;;
7719;SDS011;3902;49.474;8.616;2024-02-14T03:05:52;4.37;;;3.50;;
7719;SDS011;3902;49.474;8.616;2024-02-14T03:08:18;5.70;;;3.93;;
7719;SDS011;3902;49.474;8.616;2024-02-14T03:10:44;5.03;;;3.40;;
7719;SDS011;3902;49.474;8.616;2024-02-14T03:13:10;5.03;;;3.60;;
7719;SDS011;3902;49.474;8.616;2024-02-14T03:15:39;5.00;;;3.53;;
7719;SDS011;3902;49.474;8.616;2024-02-14T03:18:05;5.77;;;3.80;;
7719;SDS011;3902;49.474;8.616;2024-02-14T03:20:33;5.23;;;3.90;;
7719;SDS011;3902;49.474;8.616;2024-02-14T03:22:59;6.30;;;3.40;;
7719;SDS011;3902;49.474;8.616;2024-02-14T03:25:25;6.70;;;3.50;;
7719;SDS011;3902;49.474;8.616;2024-02-14T03:27:51;3.90;;;3.10;;
7719;SDS011;3902;49.474;8.616;2024-02-14T03:30:18;3.50;;;2.77;;
7719;SDS011;3902;49.474;8.616;2024-02-14T03:32:45;4.67;;;3.27;;
7719;SDS011;3902;49.474;8.616;2024-02-14T03:35:11;4.10;;;3.30;;
7719;SDS011;3902;49.474;8.616;2024-02-14T03:37:40;5.27;;;3.50;;
7719;SDS011;3902;49.474;8.616;2024-02-14T03:40:07;5.50;;;3.27;;
7719;SDS011;3902;49.474;8.616;2024-02-14T03:42:36;5.73;;;3.33;;
7719;SDS011;3902;49.474;8.616;2024-02-14T03:45:05;6.03;;;3.27;;
7719;SDS011;3902;49.474;8.616;2024-02-14T03:47:31;4.77;;;3.20;;
7719;SDS011;3902;49.474;8.616;2024-02-14T03:49:58;5.17;;;3.23;;
7719;SDS011;3902;49.474;8.616;2024-02-14T03:52:24;4.63;;;3.37;;
7719;SDS011;3902;49.474;8.616;2024-02-14T03:54:50;6.03;;;3.00;;
7719;SDS011;3902;49.474;8.616;2024-02-14T03:57:15;4.77;;;3.20;;
7719;SDS011;3902;49.474;8.616;2024-02-14T03:59:43;5.03;;;3.40;;
7719;SDS011;3902;49.474;8.616;2024-02-14T04:02:08;5.80;;;3.57;;
7719;SDS011;3902;49.474;8.616;2024-02-14T04:04:35;5.00;;;3.60;;
7719;SDS011;3902;49.474;8.616;2024-02-14T04:07:02;5.53;;;3.80;;
7719;SDS011;3902;49.474;8.616;2024-02-14T04:09:28;5.80;;;4.30;;
7719;SDS011;3902;49.474;8.616;2024-02-14T04:11:53;6.07;;;4.60;;
7719;SDS011;3902;49.474;8.616;2024-02-14T04:14:19;4.43;;;4.00;;
7719;SDS011;3902;49.474;8.616;2024-02-14T04:16:44;4.53;;;3.90;;
7719;SDS011;3902;49.474;8.616;2024-02-14T04:19:11;6.23;;;4.33;;
7719;SDS011;3902;49.474;8.616;2024-02-14T04:21:37;4.93;;;3.87;;
7719;SDS011;3902;49.474;8.616;2024-02-14T04:24:03;5.70;;;3.83;;
7719;SDS011;3902;49.474;8.616;2024-02-14T04:26:29;4.63;;;3.53;;
7719;SDS011;3902;49.474;8.616;2024-02-14T04:28:54;4.97;;;4.17;;
7719;SDS011;3902;49.474;8.616;2024-02-14T04:31:20;6.80;;;4.17;;
7719;SDS011;3902;49.474;8.616;2024-02-14T04:33:46;6.57;;;4.20;;
7719;SDS011;3902;49.474;8.616;2024-02-14T04:36:17;4.47;;;3.40;;
7719;SDS011;3902;49.474;8.616;2024-02-14T04:38:44;3.77;;;3.33;;
7719;SDS011;3902;49.474;8.616;2024-02-14T04:41:11;4.43;;;3.43;;
7719;SDS011;3902;49.474;8.616;2024-02-14T04:43:36;6.87;;;3.70;;
7719;SDS011;3902;49.474;8.616;2024-02-14T04:46:02;5.60;;;3.63;;
7719;SDS011;3902;49.474;8.616;2024-02-14T04:48:31;4.17;;;3.77;;
7719;SDS011;3902;49.474;8.616;2024-02-14T04:50:57;4.47;;;3.33;;
7719;SDS011;3902;49.474;8.616;2024-02-14T04:53:23;6.20;;;3.40;;
7719;SDS011;3902;49.474;8.616;2024-02-14T04:55:48;4.83;;;3.40;;
7719;SDS011;3902;49.474;8.616;2024-02-14T04:58:14;5.03;;;3.40;;
7719;SDS011;3902;49.474;8.616;2024-02-14T05:00:40;5.17;;;3.70;;
7719;SDS011;3902;49.474;8.616;2024-02-14T05:03:05;5.83;;;3.40;;
7719;SDS011;3902;49.474;8.616;2024-02-14T05:05:31;3.50;;;3.20;;
7719;SDS011;3902;49.474;8.616;2024-02-14T05:07:58;7.10;;;3.87;;
7719;SDS011;3902;49.474;8.616;2024-02-14T05:10:24;4.20;;;3.20;;
7719;SDS011;3902;49.474;8.616;2024-02-14T05:12:49;4.33;;;3.20;;
7719;SDS011;3902;49.474;8.616;2024-02-14T05:15:15;6.70;;;3.40;;
7719;SDS011;3902;49.474;8.616;2024-02-14T05:17:44;6.50;;;4.00;;
7719;SDS011;3902;49.474;8.616;2024-02-14T05:20:10;5.23;;;3.40;;
7719;SDS011;3902;49.474;8.616;2024-02-14T05:22:36;4.53;;;3.40;;
7719;SDS011;3902;49.474;8.616;2024-02-14T05:25:03;4.33;;;3.43;;
7719;SDS011;3902;49.474;8.616;2024-02-14T05:27:29;4.93;;;3.37;;
7719;SDS011;3902;49.474;8.616;2024-02-14T05:29:55;5.30;;;3.60;;
7719;SDS011;3902;49.474;8.616;2024-02-14T05:32:20;5.50;;;3.67;;
7719;SDS011;3902;49.474;8.616;2024-02-14T05:34:46;7.30;;;4.23;;
7719;SDS011;3902;49.474;8.616;2024-02-14T05:37:11;5.80;;;3.27;;
7719;SDS011;3902;49.474;8.616;2024-02-14T05:39:38;6.60;;;3.03;;
7719;SDS011;3902;49.474;8.616;2024-02-14T05:42:04;4.33;;;3.33;;
7719;SDS011;3902;49.474;8.616;2024-02-14T05:44:30;4.60;;;3.57;;
7719;SDS011;3902;49.474;8.616;2024-02-14T05:46:56;3.80;;;3.10;;
7719;SDS011;3902;49.474;8.616;2024-02-14T05:49:22;7.97;;;3.50;;
7719;SDS011;3902;49.474;8.616;2024-02-14T05:51:47;4.90;;;3.20;;
7719;SDS011;3902;49.474;8.616;2024-02-14T05:54:13;5.93;;;3.53;;
7719;SDS011;3902;49.474;8.616;2024-02-14T05:56:38;3.33;;;2.80;;
7719;SDS011;3902;49.474;8.616;2024-02-14T05:59:04;4.70;;;3.30;;
7719;SDS011;3902;49.474;8.616;2024-02-14T06:01:29;4.47;;;3.07;;
7719;SDS011;3902;49.474;8.616;2024-02-14T06:03:55;6.93;;;3.67;;
7719;SDS011;3902;49.474;8.616;2024-02-14T06:06:20;5.27;;;3.30;;
7719;SDS011;3902;49.474;8.616;2024-02-14T06:08:46;3.80;;;3.10;;
7719;SDS011;3902;49.474;8.616;2024-02-14T06:11:12;4.93;;;3.50;;
7719;SDS011;3902;49.474;8.616;2024-02-14T06:13:39;6.07;;;3.30;;
7719;SDS011;3902;49.474;8.616;2024-02-14T06:16:05;4.13;;;3.30;;
7719;SDS011;3902;49.474;8.616;2024-02-14T06:18:31;6.60;;;3.50;;
7719;SDS011;3902;49.474;8.616;2024-02-14T06:20:56;6.63;;;3.33;;
7719;SDS011;3902;49.474;8.616;2024-02-14T06:23:22;5.30;;;3.60;;
7719;SDS011;3902;49.474;8.616;2024-02-14T06:25:47;5.07;;;3.27;;
7719;SDS011;3902;49.474;8.616;2024-02-14T06:28:13;4.63;;;3.00;;
7719;SDS011;3902;49.474;8.616;2024-02-14T06:30:38;4.80;;;3.30;;
7719;SDS011;3902;49.474;8.616;2024-02-14T06:33:04;4.53;;;2.83;;
7719;SDS011;3902;49.474;8.616;2024-02-14T06:35:29;4.00;;;2.80;;
7719;SDS011;3902;49.474;8.616;2024-02-14T06:37:55;4.43;;;3.20;;
7719;SDS011;3902;49.474;8.616;2024-02-14T06:40:21;4.10;;;3.27;;
7719;SDS011;3902;49.474;8.616;2024-02-14T06:42:47;3.43;;;2.97;;
7719;SDS011;3902;49.474;8.616;2024-02-14T06:45:15;5.33;;;3.03;;
7719;SDS011;3902;49.474;8.616;2024-02-14T06:47:42;4.23;;;3.23;;
7719;SDS011;3902;49.474;8.616;2024-02-14T06:50:08;5.03;;;3.30;;
7719;SDS011;3902;49.474;8.616;2024-02-14T06:52:33;4.07;;;2.97;;
7719;SDS011;3902;49.474;8.616;2024-02-14T06:54:59;3.67;;;3.07;;
7719;SDS011;3902;49.474;8.616;2024-02-14T06:57:25;3.80;;;3.10;;
7719;SDS011;3902;49.474;8.616;2024-02-14T06:59:51;7.30;;;3.00;;
7719;SDS011;3902;49.474;8.616;2024-02-14T07:02:16;4.33;;;3.30;;
7719;SDS011;3902;49.474;8.616;2024-02-14T07:04:42;3.17;;;2.70;;
7719;SDS011;3902;49.474;8.616;2024-02-14T07:07:07;3.40;;;2.77;;
7719;SDS011;3902;49.474;8.616;2024-02-14T07:09:33;5.00;;;3.30;;
7719;SDS011;3902;49.474;8.616;2024-02-14T07:12:01;4.80;;;2.87;;
7719;SDS011;3902;49.474;8.616;2024-02-14T07:14:27;5.70;;;3.00;;
7719;SDS011;3902;49.474;8.616;2024-02-14T07:16:53;4.90;;;3.10;;
7719;SDS011;3902;49.474;8.616;2024-02-14T07:19:19;3.40;;;2.63;;
7719;SDS011;3902;49.474;8.616;2024-02-14T07:21:44;3.90;;;3.43;;
7719;SDS011;3902;49.474;8.616;2024-02-14T07:24:10;4.00;;;2.80;;
7719;SDS011;3902;49.474;8.616;2024-02-14T07:26:35;4.87;;;3.20;;
7719;SDS011;3902;49.474;8.616;2024-02-14T07:29:01;4.10;;;2.80;;
7719;SDS011;3902;49.474;8.616;2024-02-14T07:31:28;4.00;;;2.97;;
7719;SDS011;3902;49.474;8.616;2024-02-14T07:33:59;3.20;;;2.80;;
7719;SDS011;3902;49.474;8.616;2024-02-14T07:36:25;2.80;;;2.50;;
7719;SDS011;3902;49.474;8.616;2024-02-14T07:38:51;7.23;;;2.60;;
7719;SDS011;3902;49.474;8.616;2024-02-14T07:41:16;6.67;;;3.00;;
7719;SDS011;3902;49.474;8.616;2024-02-14T07:43:42;3.73;;;2.70;;
7719;SDS011;3902;49.474;8.616;2024-02-14T07:46:07;4.87;;;2.80;;
7719;SDS011;3902;49.474;8.616;2024-02-14T07:48:33;3.97;;;2.90;;
7719;SDS011;3902;49.474;8.616;2024-02-14T07:50:58;4.23;;;2.90;;
7719;SDS011;3902;49.474;8.616;2024-02-14T07:53:25;3.97;;;2.50;;
7719;SDS011;3902;49.474;8.616;2024-02-14T07:55:50;3.50;;;2.90;;
7719;SDS011;3902;49.474;8.616;2024-02-14T07:58:17;4.00;;;2.70;;
7719;SDS011;3902;49.474;8.616;2024-02-14T08:00:43;4.00;;;2.90;;
7719;SDS011;3902;49.474;8.616;2024-02-14T08:03:09;5.47;;;2.93;;
7719;SDS011;3902;49.474;8.616;2024-02-14T08:05:34;4.23;;;3.30;;
7719;SDS011;3902;49.474;8.616;2024-02-14T08:08:00;4.63;;;2.90;;
7719;SDS011;3902;49.474;8.616;2024-02-14T08:10:25;5.30;;;3.20;;
7719;SDS011;3902;49.474;8.616;2024-02-14T08:12:51;3.63;;;2.73;;
7719;SDS011;3902;49.474;8.616;2024-02-14T08:15:16;2.60;;;2.40;;
7719;SDS011;3902;49.474;8.616;2024-02-14T08:17:42;5.07;;;3.20;;
7719;SDS011;3902;49.474;8.616;2024-02-14T08:20:08;5.83;;;2.67;;
7719;SDS011;3902;49.474;8.616;2024-02-14T08:22:34;4.00;;;2.67;;
7719;SDS011;3902;49.474;8.616;2024-02-14T08:24:59;3.10;;;2.80;;
7719;SDS011;3902;49.474;8.616;2024-02-14T08:27:25;3.70;;;2.93;;
7719;SDS011;3902;49.474;8.616;2024-02-14T08:29:51;5.60;;;2.80;;
7719;SDS011;3902;49.474;8.616;2024-02-14T08:32:17;5.23;;;2.93;;
7719;SDS011;3902;49.474;8.616;2024-02-14T08:34:42;4.93;;;2.93;;
7719;SDS011;3902;49.474;8.616;2024-02-14T08:37:08;5.03;;;2.50;;
7719;SDS011;3902;49.474;8.616;2024-02-14T08:39:33;3.40;;;2.80;;
7719;SDS011;3902;49.474;8.616;2024-02-14T08:41:59;3.50;;;3.03;;
7719;SDS011;3902;49.474;8.616;2024-02-14T08:44:28;4.30;;;2.73;;
7719;SDS011;3902;49.474;8.616;2024-02-14T08:46:53;5.83;;;3.10;;
7719;SDS011;3902;49.474;8.616;2024-02-14T08:49:19;4.97;;;2.93;;
7719;SDS011;3902;49.474;8.616;2024-02-14T08:51:45;3.53;;;2.60;;
7719;SDS011;3902;49.474;8.616;2024-02-14T08:54:12;2.83;;;2.53;;
7719;SDS011;3902;49.474;8.616;2024-02-14T08:56:40;3.47;;;2.70;;
7719;SDS011;3902;49.474;8.616;2024-02-14T08:59:06;4.70;;;3.30;;
7719;SDS011;3902;49.474;8.616;2024-02-14T09:01:32;3.53;;;2.90;;
7719;SDS011;3902;49.474;8.616;2024-02-14T09:03:57;4.07;;;2.90;;
7719;SDS011;3902;49.474;8.616;2024-02-14T09:06:24;4.83;;;3.10;;
7719;SDS011;3902;49.474;8.616;2024-02-14T09:08:51;2.67;;;2.47;;
7719;SDS011;3902;49.474;8.616;2024-02-14T09:11:18;4.00;;;2.93;;
7719;SDS011;3902;49.474;8.616;2024-02-14T09:13:44;3.33;;;3.00;;
7719;SDS011;3902;49.474;8.616;2024-02-14T09:16:12;5.03;;;3.00;;
7719;SDS011;3902;49.474;8.616;2024-02-14T09:18:38;5.30;;;3.07;;
7719;SDS011;3902;49.474;8.616;2024-02-14T09:21:04;3.63;;;2.67;;
7719;SDS011;3902;49.474;8.616;2024-02-14T09:23:30;3.30;;;2.73;;
7719;SDS011;3902;49.474;8.616;2024-02-14T09:25:57;4.80;;;2.77;;
7719;SDS011;3902;49.474;8.616;2024-02-14T09:28:23;3.70;;;2.90;;
7719;SDS011;3902;49.474;8.616;2024-02-14T09:30:50;4.50;;;2.77;;
7719;SDS011;3902;49.474;8.616;2024-02-14T09:33:15;3.60;;;2.90;;
7719;SDS011;3902;49.474;8.616;2024-02-14T09:35:41;3.30;;;3.00;;
7719;SDS011;3902;49.474;8.616;2024-02-14T09:38:12;3.87;;;2.60;;
7719;SDS011;3902;49.474;8.616;2024-02-14T09:40:38;6.50;;;3.37;;
7719;SDS011;3902;49.474;8.616;2024-02-14T09:43:10;5.57;;;3.20;;
7719;SDS011;3902;49.474;8.616;2024-02-14T09:45:47;5.47;;;3.30;;
7719;SDS011;3902;49.474;8.616;2024-02-14T09:48:16;4.27;;;2.87;;
7719;SDS011;3902;49.474;8.616;2024-02-14T09:50:44;4.90;;;2.83;;
7719;SDS011;3902;49.474;8.616;2024-02-14T09:53:10;3.43;;;2.90;;
7719;SDS011;3902;49.474;8.616;2024-02-14T09:55:37;4.10;;;3.13;;
7719;SDS011;3902;49.474;8.616;2024-02-14T09:58:03;3.13;;;2.50;;
7719;SDS011;3902;49.474;8.616;2024-02-14T10:00:31;4.77;;;2.80;;
7719;SDS011;3902;49.474;8.616;2024-02-14T10:02:58;3.37;;;2.67;;
7719;SDS011;3902;49.474;8.616;2024-02-14T10:05:23;4.37;;;2.70;;
7719;SDS011;3902;49.474;8.616;2024-02-14T10:07:50;5.90;;;3.50;;
7719;SDS011;3902;49.474;8.616;2024-02-14T10:10:15;4.67;;;2.90;;
7719;SDS011;3902;49.474;8.616;2024-02-14T10:12:41;3.90;;;2.70;;
7719;SDS011;3902;49.474;8.616;2024-02-14T10:15:07;4.30;;;2.47;;
7719;SDS011;3902;49.474;8.616;2024-02-14T10:17:33;3.97;;;2.60;;
7719;SDS011;3902;49.474;8.616;2024-02-14T10:19:59;3.00;;;2.70;;
7719;SDS011;3902;49.474;8.616;2024-02-14T10:22:34;3.30;;;2.80;;
7719;SDS011;3902;49.474;8.616;2024-02-14T10:25:05;4.47;;;2.87;;
7719;SDS011;3902;49.474;8.616;2024-02-14T10:27:39;3.60;;;2.20;;
7719;SDS011;3902;49.474;8.616;2024-02-14T10:30:06;4.30;;;2.60;;
7719;SDS011;3902;49.474;8.616;2024-02-14T10:32:36;3.43;;;2.40;;
7719;SDS011;3902;49.474;8.616;2024-02-14T10:35:05;5.00;;;2.83;;
7719;SDS011;3902;49.474;8.616;2024-02-14T10:37:37;3.93;;;2.30;;
7719;SDS011;3902;49.474;8.616;2024-02-14T10:40:03;2.57;;;2.30;;
7719;SDS011;3902;49.474;8.616;2024-02-14T10:42:30;3.63;;;2.83;;
7719;SDS011;3902;49.474;8.616;2024-02-14T10:44:56;3.80;;;2.17;;
7719;SDS011;3902;49.474;8.616;2024-02-14T10:47:23;4.53;;;2.70;;
7719;SDS011;3902;49.474;8.616;2024-02-14T10:49:53;3.00;;;2.70;;
7719;SDS011;3902;49.474;8.616;2024-02-14T10:52:25;3.33;;;2.20;;
7719;SDS011;3902;49.474;8.616;2024-02-14T10:54:55;3.90;;;2.60;;
7719;SDS011;3902;49.474;8.616;2024-02-14T10:57:22;4.03;;;3.00;;
7719;SDS011;3902;49.474;8.616;2024-02-14T10:59:49;3.10;;;2.40;;
7719;SDS011;3902;49.474;8.616;2024-02-14T11:02:16;4.07;;;2.60;;
7719;SDS011;3902;49.474;8.616;2024-02-14T11:04:44;5.73;;;2.83;;
7719;SDS011;3902;49.474;8.616;2024-02-14T11:07:10;6.67;;;3.20;;
7719;SDS011;3902;49.474;8.616;2024-02-14T11:09:36;3.73;;;2.47;;
7719;SDS011;3902;49.474;8.616;2024-02-14T11:12:02;3.17;;;2.50;;
7719;SDS011;3902;49.474;8.616;2024-02-14T11:14:32;3.27;;;2.47;;
7719;SDS011;3902;49.474;8.616;2024-02-14T11:17:00;5.20;;;3.00;;
7719;SDS011;3902;49.474;8.616;2024-02-14T11:19:35;3.73;;;2.60;;
7719;SDS011;3902;49.474;8.616;2024-02-14T11:22:10;3.20;;;2.67;;
7719;SDS011;3902;49.474;8.616;2024-02-14T11:24:46;3.03;;;2.53;;
7719;SDS011;3902;49.474;8.616;2024-02-14T11:27:12;5.37;;;2.77;;
7719;SDS011;3902;49.474;8.616;2024-02-14T11:29:39;3.67;;;2.60;;
7719;SDS011;3902;49.474;8.616;2024-02-14T11:32:06;4.60;;;2.17;;
7719;SDS011;3902;49.474;8.616;2024-02-14T11:34:35;4.87;;;2.77;;
7719;SDS011;3902;49.474;8.616;2024-02-14T11:37:01;4.60;;;2.50;;
7719;SDS011;3902;49.474;8.616;2024-02-14T11:39:26;2.90;;;2.13;;
7719;SDS011;3902;49.474;8.616;2024-02-14T11:41:52;3.53;;;2.37;;
7719;SDS011;3902;49.474;8.616;2024-02-14T11:44:20;5.00;;;2.60;;
7719;SDS011;3902;49.474;8.616;2024-02-14T11:46:47;3.30;;;2.47;;
7719;SDS011;3902;49.474;8.616;2024-02-14T11:49:12;4.03;;;2.83;;
7719;SDS011;3902;49.474;8.616;2024-02-14T11:51:38;3.53;;;2.53;;
7719;SDS011;3902;49.474;8.616;2024-02-14T11:54:05;3.00;;;2.50;;
7719;SDS011;3902;49.474;8.616;2024-02-14T11:56:36;2.93;;;2.50;;
7719;SDS011;3902;49.474;8.616;2024-02-14T11:59:03;5.93;;;2.60;;
7719;SDS011;3902;49.474;8.616;2024-02-14T12:01:33;3.30;;;2.40;;
7719;SDS011;3902;49.474;8.616;2024-02-14T12:04:00;3.47;;;2.50;;
7719;SDS011;3902;49.474;8.616;2024-02-14T12:06:29;3.53;;;2.43;;
7719;SDS011;3902;49.474;8.616;2024-02-14T12:08:57;4.17;;;2.70;;
7719;SDS011;3902;49.474;8.616;2024-02-14T12:11:26;3.03;;;2.23;;
7719;SDS011;3902;49.474;8.616;2024-02-14T12:13:53;3.83;;;2.60;;
7719;SDS011;3902;49.474;8.616;2024-02-14T12:16:21;3.10;;;1.90;;
7719;SDS011;3902;49.474;8.616;2024-02-14T12:18:47;2.30;;;1.80;;
7719;SDS011;3902;49.474;8.616;2024-02-14T12:21:13;2.30;;;2.10;;
7719;SDS011;3902;49.474;8.616;2024-02-14T12:23:38;3.90;;;2.70;;
7719;SDS011;3902;49.474;8.616;2024-02-14T12:26:04;4.40;;;2.63;;
7719;SDS011;3902;49.474;8.616;2024-02-14T12:28:30;3.73;;;2.30;;
7719;SDS011;3902;49.474;8.616;2024-02-14T12:30:56;4.20;;;2.63;;
7719;SDS011;3902;49.474;8.616;2024-02-14T12:33:25;3.20;;;2.53;;
7719;SDS011;3902;49.474;8.616;2024-02-14T12:35:53;4.63;;;2.60;;
7719;SDS011;3902;49.474;8.616;2024-02-14T12:38:21;2.63;;;1.80;;
7719;SDS011;3902;49.474;8.616;2024-02-14T12:40:48;2.63;;;2.20;;
7719;SDS011;3902;49.474;8.616;2024-02-14T12:43:14;3.40;;;1.93;;
7719;SDS011;3902;49.474;8.616;2024-02-14T12:45:43;1.97;;;1.80;;
7719;SDS011;3902;49.474;8.616;2024-02-14T12:48:10;2.40;;;2.20;;
7719;SDS011;3902;49.474;8.616;2024-02-14T12:50:37;2.50;;;2.17;;
7719;SDS011;3902;49.474;8.616;2024-02-14T12:53:03;2.03;;;1.90;;
7719;SDS011;3902;49.474;8.616;2024-02-14T12:55:29;2.83;;;2.23;;
7719;SDS011;3902;49.474;8.616;2024-02-14T12:57:55;2.47;;;1.70;;
7719;SDS011;3902;49.474;8.616;2024-02-14T13:00:21;1.87;;;1.63;;
7719;SDS011;3902;49.474;8.616;2024-02-14T13:02:47;2.17;;;1.50;;
7719;SDS011;3902;49.474;8.616;2024-02-14T13:05:13;2.80;;;2.03;;
7719;SDS011;3902;49.474;8.616;2024-02-14T13:07:39;2.50;;;1.70;;
7719;SDS011;3902;49.474;8.616;2024-02-14T13:10:05;1.80;;;1.60;;
7719;SDS011;3902;49.474;8.616;2024-02-14T13:12:33;2.30;;;1.60;;
7719;SDS011;3902;49.474;8.616;2024-02-14T13:14:58;2.00;;;1.80;;
7719;SDS011;3902;49.474;8.616;2024-02-14T13:17:25;4.70;;;1.83;;
7719;SDS011;3902;49.474;8.616;2024-02-14T13:19:51;1.90;;;1.70;;
7719;SDS011;3902;49.474;8.616;2024-02-14T13:22:18;2.00;;;1.80;;
7719;SDS011;3902;49.474;8.616;2024-02-14T13:24:44;1.73;;;1.63;;
7719;SDS011;3902;49.474;8.616;2024-02-14T13:27:09;2.07;;;1.80;;
7719;SDS011;3902;49.474;8.616;2024-02-14T13:29:35;2.00;;;1.80;;
7719;SDS011;3902;49.474;8.616;2024-02-14T13:32:00;2.40;;;2.20;;
7719;SDS011;3902;49.474;8.616;2024-02-14T13:34:27;2.13;;;1.93;;
7719;SDS011;3902;49.474;8.616;2024-02-14T13:36:53;2.20;;;2.00;;
7719;SDS011;3902;49.474;8.616;2024-02-14T13:39:20;2.43;;;1.90;;
7719;SDS011;3902;49.474;8.616;2024-02-14T13:41:45;4.23;;;1.90;;
7719;SDS011;3902;49.474;8.616;2024-02-14T13:44:12;2.67;;;1.97;;
7719;SDS011;3902;49.474;8.616;2024-02-14T13:46:38;3.07;;;1.90;;
7719;SDS011;3902;49.474;8.616;2024-02-14T13:49:08;2.00;;;1.73;;
7719;SDS011;3902;49.474;8.616;2024-02-14T13:51:35;1.70;;;1.60;;
7719;SDS011;3902;49.474;8.616;2024-02-14T13:54:01;3.50;;;2.00;;
7719;SDS011;3902;49.474;8.616;2024-02-14T13:56:27;2.00;;;1.80;;
7719;SDS011;3902;49.474;8.616;2024-02-14T13:58:52;2.13;;;1.73;;
7719;SDS011;3902;49.474;8.616;2024-02-14T14:01:18;2.20;;;1.83;;
7719;SDS011;3902;49.474;8.616;2024-02-14T14:03:44;2.10;;;1.80;;
7719;SDS011;3902;49.474;8.616;2024-02-14T14:06:09;5.90;;;1.80;;
7719;SDS011;3902;49.474;8.616;2024-02-14T14:08:35;3.77;;;1.77;;
7719;SDS011;3902;49.474;8.616;2024-02-14T14:11:01;1.63;;;1.50;;
7719;SDS011;3902;49.474;8.616;2024-02-14T14:13:28;2.13;;;1.93;;
7719;SDS011;3902;49.474;8.616;2024-02-14T14:15:56;1.47;;;1.37;;
7719;SDS011;3902;49.474;8.616;2024-02-14T14:18:22;2.23;;;1.57;;
7719;SDS011;3902;49.474;8.616;2024-02-14T14:20:48;1.83;;;1.50;;
7719;SDS011;3902;49.474;8.616;2024-02-14T14:23:14;4.23;;;1.70;;
7719;SDS011;3902;49.474;8.616;2024-02-14T14:25:39;1.53;;;1.43;;
7719;SDS011;3902;49.474;8.616;2024-02-14T14:28:05;1.70;;;1.60;;
7719;SDS011;3902;49.474;8.616;2024-02-14T14:30:30;2.33;;;1.67;;
7719;SDS011;3902;49.474;8.616;2024-02-14T14:32:56;1.87;;;1.43;;
7719;SDS011;3902;49.474;8.616;2024-02-14T14:35:21;1.50;;;1.37;;
7719;SDS011;3902;49.474;8.616;2024-02-14T14:37:47;2.37;;;1.53;;
7719;SDS011;3902;49.474;8.616;2024-02-14T14:40:12;1.53;;;1.43;;
7719;SDS011;3902;49.474;8.616;2024-02-14T14:42:38;1.70;;;1.50;;
7719;SDS011;3902;49.474;8.616;2024-02-14T14:45:04;1.70;;;1.60;;
7719;SDS011;3902;49.474;8.616;2024-02-14T14:47:30;1.60;;;1.50;;
7719;SDS011;3902;49.474;8.616;2024-02-14T14:49:55;2.03;;;1.40;;
7719;SDS011;3902;49.474;8.616;2024-02-14T14:52:21;1.73;;;1.33;;
7719;SDS011;3902;49.474;8.616;2024-02-14T14:54:46;1.90;;;1.57;;
7719;SDS011;3902;49.474;8.616;2024-02-14T14:57:12;1.77;;;1.43;;
7719;SDS011;3902;49.474;8.616;2024-02-14T14:59:40;1.83;;;1.30;;
7719;SDS011;3902;49.474;8.616;2024-02-14T15:02:06;1.30;;;1.20;;
7719;SDS011;3902;49.474;8.616;2024-02-14T15:04:32;1.83;;;1.20;;
7719;SDS011;3902;49.474;8.616;2024-02-14T15:07:00;2.37;;;1.30;;
7719;SDS011;3902;49.474;8.616;2024-02-14T15:09:25;1.70;;;1.40;;